Time;durP1;ratioP1;P1;durP2;ratioP2;P2;SDS_P1;SDS_P2;PMS_P1;PMS_P2;Temp;Humidity;BMP_temperature;BMP_pressure;BME280_temperature;BME280_humidity;BME280_pressure;Samples;Min_cycle;Max_cycle;Signal;HPM_P1;HPM_P2
2022/08/31 00:07:26;;;;;;;0.50;0.10;;;17.20;99.90;;;;;;20951291;28;20066;-80
2022/08/31 00:17:27;;;;;;;0.75;0.15;;;17.10;99.90;;;;;;20943394;28;20165;-80
2022/08/31 00:27:28;;;;;;;0.75;0.10;;;16.90;99.90;;;;;;20929937;28;20040;-80
2022/08/31 00:37:29;;;;;;;1.25;0.32;;;16.80;99.90;;;;;;20927033;28;20052;-81
2022/08/31 00:47:30;;;;;;;0.95;0.30;;;16.70;99.90;;;;;;20943990;28;20032;-81
2022/08/31 00:57:35;;;;;;;1.00;0.40;;;16.60;99.90;;;;;;20935524;28;20044;-80
2022/08/31 01:07:37;;;;;;;0.43;0.20;;;16.60;99.90;;;;;;20968126;28;20036;-81
2022/08/31 01:17:39;;;;;;;0.50;0.20;;;16.40;99.90;;;;;;20950488;28;20040;-80
2022/08/31 01:27:41;;;;;;;0.65;0.30;;;16.40;99.90;;;;;;20924800;28;20205;-80
2022/08/31 01:37:42;;;;;;;0.45;0.13;;;16.30;99.90;;;;;;20965586;28;20044;-81
2022/08/31 01:47:43;;;;;;;0.30;0.10;;;16.20;99.90;;;;;;20945186;28;20435;-81
2022/08/31 01:57:44;;;;;;;1.10;0.40;;;16.10;99.90;;;;;;20953129;28;20431;-81
2022/08/31 02:07:45;;;;;;;0.82;0.52;;;16.00;99.90;;;;;;20958819;28;20779;-83
2022/08/31 02:17:46;;;;;;;1.27;0.50;;;15.90;99.90;;;;;;20959078;28;20052;-81
2022/08/31 02:27:47;;;;;;;0.60;0.20;;;15.90;99.90;;;;;;20942743;28;20032;-81
2022/08/31 02:37:48;;;;;;;0.93;0.10;;;15.80;99.90;;;;;;20951086;28;20040;-83
2022/08/31 02:47:50;;;;;;;1.25;0.30;;;15.70;99.90;;;;;;20953572;28;20032;-81
2022/08/31 02:57:51;;;;;;;0.65;0.20;;;15.60;99.90;;;;;;20948030;28;20587;-83
2022/08/31 03:07:53;;;;;;;0.98;0.40;;;15.60;99.90;;;;;;20947377;28;20055;-82
2022/08/31 03:17:54;;;;;;;0.65;0.22;;;15.60;99.90;;;;;;20977784;28;20040;-83
2022/08/31 03:27:55;;;;;;;0.30;0.20;;;15.50;99.90;;;;;;20951102;28;20044;-84
2022/08/31 03:37:57;;;;;;;1.38;0.30;;;15.50;99.90;;;;;;20951217;28;20040;-81
2022/08/31 03:47:58;;;;;;;1.00;0.32;;;15.40;99.90;;;;;;20940844;28;20086;-83
2022/08/31 03:57:59;;;;;;;0.63;0.55;;;15.30;99.90;;;;;;20950978;28;20755;-83
2022/08/31 04:08:00;;;;;;;0.45;0.43;;;15.30;99.90;;;;;;20939508;28;20553;-84
2022/08/31 04:18:02;;;;;;;2.08;0.40;;;15.20;99.90;;;;;;20956227;28;20044;-83
2022/08/31 04:28:03;;;;;;;0.55;0.20;;;15.20;99.90;;;;;;20933772;28;20082;-83
2022/08/31 04:38:04;;;;;;;0.32;0.10;;;15.20;99.90;;;;;;20937083;28;20041;-83
2022/08/31 04:48:05;;;;;;;1.15;0.20;;;15.00;99.90;;;;;;20922663;28;20037;-83
2022/08/31 04:58:06;;;;;;;0.20;0.10;;;14.90;99.90;;;;;;20925531;28;20040;-83
2022/08/31 05:08:07;;;;;;;0.28;0.10;;;14.60;99.90;;;;;;20935291;28;20651;-83
2022/08/31 05:18:10;;;;;;;0.15;0.10;;;14.50;99.90;;;;;;20956572;28;20049;-83
2022/08/31 05:28:11;;;;;;;1.30;0.45;;;14.40;99.90;;;;;;20920399;28;20434;-83
2022/08/31 05:38:12;;;;;;;0.15;0.03;;;14.50;99.90;;;;;;20945105;28;20041;-83
2022/08/31 05:48:13;;;;;;;0.28;0.10;;;14.50;99.90;;;;;;20952660;28;20399;-84
2022/08/31 05:58:14;;;;;;;0.70;0.10;;;14.70;99.90;;;;;;20955631;28;20098;-84
2022/08/31 06:08:16;;;;;;;0.32;0.00;;;14.70;99.90;;;;;;20967685;28;20029;-82
2022/08/31 06:18:19;;;;;;;0.28;0.00;;;14.80;99.90;;;;;;20971126;28;20098;-84
2022/08/31 06:28:20;;;;;;;0.10;0.10;;;15.10;99.90;;;;;;20966751;28;20086;-83
2022/08/31 06:38:21;;;;;;;0.10;0.00;;;15.30;99.90;;;;;;20962956;28;20044;-83
2022/08/31 06:48:22;;;;;;;0.10;0.00;;;15.60;99.90;;;;;;20947651;28;20040;-83
2022/08/31 06:58:23;;;;;;;0.38;0.15;;;15.70;99.90;;;;;;20956973;28;20052;-84
2022/08/31 07:08:24;;;;;;;0.22;0.10;;;15.90;99.90;;;;;;20959628;28;20056;-82
2022/08/31 07:18:25;;;;;;;0.30;0.00;;;16.10;99.90;;;;;;20955760;28;20170;-83
2022/08/31 07:28:28;;;;;;;0.30;0.13;;;16.50;99.90;;;;;;20925457;28;20523;-80
2022/08/31 07:48:48;;;;;;;0.43;0.17;;;16.70;99.90;;;;;;20957760;28;20040;-81
2022/08/31 07:58:49;;;;;;;0.40;0.13;;;17.00;99.90;;;;;;20944695;28;20048;-84
2022/08/31 08:08:51;;;;;;;0.22;0.10;;;17.40;99.90;;;;;;20953885;28;20430;-81
2022/08/31 08:18:52;;;;;;;0.77;0.20;;;17.70;99.90;;;;;;20946513;28;20040;-81
2022/08/31 08:28:53;;;;;;;0.98;0.30;;;18.20;99.90;;;;;;20945158;28;20106;-82
2022/08/31 08:38:56;;;;;;;0.32;0.10;;;18.50;99.90;;;;;;20950304;28;20044;-81
2022/08/31 08:48:59;;;;;;;0.98;0.20;;;18.80;99.90;;;;;;20954442;28;20233;-80
2022/08/31 08:59:01;;;;;;;0.43;0.22;;;19.20;99.90;;;;;;20956936;28;20387;-80
2022/08/31 09:09:19;;;;;;;0.43;0.10;;;19.50;99.90;;;;;;20958753;28;20077;-80
2022/08/31 09:19:20;;;;;;;0.25;0.10;;;19.90;99.90;;;;;;20961255;28;21519;-80
2022/08/31 09:29:30;;;;;;;0.70;0.10;;;20.20;99.90;;;;;;20958433;28;20404;-80
2022/08/31 09:39:31;;;;;;;0.85;0.20;;;20.40;99.90;;;;;;20947843;28;20633;-80
2022/08/31 09:49:36;;;;;;;1.48;0.17;;;20.60;99.90;;;;;;20963024;28;20033;-80
2022/08/31 09:59:46;;;;;;;0.50;0.30;;;20.90;99.90;;;;;;20956258;28;20033;-79
2022/08/31 10:09:53;;;;;;;0.60;0.20;;;21.00;99.90;;;;;;20953024;28;20040;-79
2022/08/31 10:20:05;;;;;;;0.40;0.13;;;21.50;99.90;;;;;;20964298;28;20451;-79
2022/08/31 10:30:18;;;;;;;0.20;0.10;;;21.80;99.90;;;;;;20975969;28;20450;-79
2022/08/31 10:40:31;;;;;;;0.55;0.38;;;22.00;99.90;;;;;;20961608;28;20608;-79
2022/08/31 10:50:38;;;;;;;0.90;0.30;;;22.40;99.90;;;;;;20961248;28;20163;-79
2022/08/31 11:01:01;;;;;;;1.08;0.40;;;22.60;99.90;;;;;;20959491;28;20094;-80
2022/08/31 11:11:07;;;;;;;0.40;0.20;;;22.80;99.90;;;;;;20966788;28;20098;-79
2022/08/31 11:21:34;;;;;;;1.30;0.10;;;23.20;99.90;;;;;;20970041;28;20296;-80
2022/08/31 11:31:37;;;;;;;0.83;0.20;;;23.40;99.90;;;;;;20930980;28;20520;-79
2022/08/31 11:41:49;;;;;;;1.75;0.28;;;24.10;99.20;;;;;;20967358;28;20044;-79
2022/08/31 11:51:54;;;;;;;0.35;0.10;;;24.20;99.30;;;;;;20973322;28;20044;-79
2022/08/31 12:01:58;;;;;;;0.55;0.20;;;24.10;98.30;;;;;;21020670;28;20174;-78
2022/08/31 12:12:26;;;;;;;1.35;0.30;;;24.70;98.40;;;;;;20973168;28;20059;-79
2022/08/31 12:33:26;;;;;;;0.73;0.50;;;25.20;96.50;;;;;;20965395;28;20131;-79
2022/08/31 12:43:36;;;;;;;0.55;0.25;;;25.60;95.90;;;;;;20952529;28;20040;-79
2022/08/31 12:53:43;;;;;;;0.43;0.08;;;25.90;95.00;;;;;;20962383;28;20047;-79
2022/08/31 13:03:48;;;;;;;1.25;0.10;;;25.90;94.90;;;;;;20966715;28;20082;-79
2022/08/31 13:13:51;;;;;;;0.57;0.20;;;26.20;93.90;;;;;;20958368;28;20082;-78
2022/08/31 13:24:05;;;;;;;0.15;0.05;;;26.60;93.40;;;;;;20945964;28;20044;-78
2022/08/31 13:34:09;;;;;;;0.55;0.20;;;26.60;92.70;;;;;;20939519;28;20029;-79
2022/08/31 13:44:12;;;;;;;0.50;0.10;;;27.30;91.10;;;;;;20951470;28;20764;-79
2022/08/31 13:54:25;;;;;;;1.10;0.28;;;27.30;91.10;;;;;;20963065;28;20047;-79
2022/08/31 14:04:47;;;;;;;2.13;0.15;;;27.80;90.20;;;;;;20966535;28;20040;-78
2022/08/31 14:14:49;;;;;;;0.32;0.10;;;27.30;90.20;;;;;;20978447;28;20070;-79
2022/08/31 14:24:49;;;;;;;0.75;0.25;;;26.60;90.90;;;;;;20969834;28;20033;-81
2022/08/31 14:34:52;;;;;;;0.47;0.10;;;26.30;91.10;;;;;;20959830;28;20040;-79
2022/08/31 14:44:57;;;;;;;0.50;0.10;;;25.80;91.10;;;;;;20965549;28;20036;-83
2022/08/31 14:55:01;;;;;;;0.43;0.17;;;25.50;91.00;;;;;;20978346;28;20040;-80
2022/08/31 15:05:05;;;;;;;0.80;0.40;;;25.40;92.10;;;;;;20964499;28;20078;-80
2022/08/31 15:15:08;;;;;;;2.78;0.20;;;25.10;91.50;;;;;;20957768;28;20044;-80
2022/08/31 15:25:11;;;;;;;0.60;0.13;;;25.00;91.80;;;;;;20974958;28;20037;-79
2022/08/31 15:35:22;;;;;;;0.30;0.10;;;24.60;92.20;;;;;;20923072;28;20477;-79
2022/08/31 15:45:26;;;;;;;1.38;0.43;;;24.60;92.60;;;;;;20957037;28;20036;-79
2022/08/31 15:55:27;;;;;;;2.58;0.20;;;24.40;92.10;;;;;;20968843;28;20126;-81
2022/08/31 16:05:37;;;;;;;0.40;0.20;;;24.20;91.70;;;;;;20961114;28;20033;-81
2022/08/31 16:15:38;;;;;;;1.42;0.30;;;24.10;91.60;;;;;;20960716;28;20028;-81
2022/08/31 16:25:39;;;;;;;1.33;0.30;;;23.80;92.40;;;;;;20967833;28;20086;-80
2022/08/31 16:35:43;;;;;;;0.93;0.20;;;23.60;92.30;;;;;;20966767;28;20048;-79
2022/08/31 16:45:44;;;;;;;1.65;0.85;;;23.40;92.70;;;;;;20965325;28;20629;-81
2022/08/31 16:55:46;;;;;;;0.50;0.20;;;23.20;92.70;;;;;;20950214;28;20070;-80
2022/08/31 17:05:51;;;;;;;0.38;0.20;;;23.00;93.10;;;;;;20958134;28;20139;-79
2022/08/31 17:15:53;;;;;;;0.25;0.10;;;22.80;92.80;;;;;;20953665;28;20453;-79
2022/08/31 17:25:54;;;;;;;0.10;0.03;;;22.50;93.50;;;;;;20952609;28;20032;-81
2022/08/31 17:35:56;;;;;;;0.32;0.20;;;22.50;93.50;;;;;;20941389;28;20048;-80
2022/08/31 17:46:01;;;;;;;0.55;0.10;;;22.30;93.30;;;;;;20953698;28;20743;-82
2022/08/31 17:56:06;;;;;;;0.55;0.10;;;22.10;93.50;;;;;;20950590;28;20036;-80
2022/08/31 18:06:07;;;;;;;1.05;0.20;;;21.90;93.60;;;;;;20970455;28;20041;-79
2022/08/31 18:16:12;;;;;;;0.40;0.10;;;21.70;93.50;;;;;;20950375;28;20502;-79
2022/08/31 18:26:26;;;;;;;0.57;0.10;;;21.40;94.70;;;;;;20951822;28;20600;-79
2022/08/31 18:36:28;;;;;;;0.63;0.20;;;21.20;95.10;;;;;;20956080;28;20040;-79
2022/08/31 18:46:29;;;;;;;0.20;0.10;;;20.90;98.20;;;;;;20961171;28;20040;-79
2022/08/31 18:56:30;;;;;;;2.55;1.23;;;20.50;98.70;;;;;;20952033;28;20044;-80
2022/08/31 19:06:33;;;;;;;1.08;0.30;;;20.10;99.90;;;;;;20953780;28;20553;-80
2022/08/31 19:16:34;;;;;;;0.77;0.30;;;19.80;99.90;;;;;;20980564;28;20048;-80
2022/08/31 19:26:58;;;;;;;0.40;0.15;;;19.60;99.90;;;;;;20965145;28;20036;-80
2022/08/31 19:37:01;;;;;;;0.20;0.10;;;19.40;99.90;;;;;;20966696;28;20253;-80
2022/08/31 19:47:02;;;;;;;0.52;0.17;;;19.30;99.90;;;;;;20958784;28;20258;-80
2022/08/31 19:57:06;;;;;;;0.10;0.05;;;19.20;99.90;;;;;;20966584;28;20395;-80
2022/08/31 20:07:07;;;;;;;2.10;0.30;;;19.00;99.90;;;;;;20964218;28;20098;-80
2022/08/31 20:17:08;;;;;;;1.55;0.57;;;18.90;99.90;;;;;;20961271;28;20078;-80
2022/08/31 20:27:11;;;;;;;0.63;0.38;;;18.80;99.90;;;;;;20946698;28;20037;-80
2022/08/31 20:37:12;;;;;;;0.55;0.20;;;18.60;99.90;;;;;;20955358;28;20443;-80
2022/08/31 20:57:37;;;;;;;0.75;0.43;;;18.50;99.90;;;;;;20961139;28;20036;-80
2022/08/31 21:07:38;;;;;;;0.57;0.22;;;18.40;99.90;;;;;;20949718;28;20036;-80
2022/08/31 21:17:39;;;;;;;0.50;0.20;;;18.30;99.90;;;;;;20941243;28;20768;-80
2022/08/31 21:27:40;;;;;;;1.15;0.20;;;18.30;99.90;;;;;;20947253;28;20040;-80
2022/08/31 21:37:41;;;;;;;3.35;0.40;;;18.20;99.90;;;;;;20956130;28;20047;-80
2022/08/31 21:47:42;;;;;;;0.95;0.30;;;18.10;99.90;;;;;;20952629;28;20043;-80
2022/08/31 21:57:43;;;;;;;0.43;0.20;;;18.00;99.90;;;;;;20961200;28;20434;-81
2022/08/31 22:07:44;;;;;;;0.57;0.17;;;17.80;99.90;;;;;;20951025;28;20373;-80
2022/08/31 22:17:46;;;;;;;0.60;0.25;;;17.70;99.90;;;;;;20962552;28;20062;-81
2022/08/31 22:27:47;;;;;;;1.23;0.35;;;17.50;99.90;;;;;;20972383;28;20446;-81
2022/08/31 22:37:48;;;;;;;0.32;0.20;;;17.20;99.90;;;;;;20971599;28;20048;-81
2022/08/31 22:47:49;;;;;;;0.50;0.20;;;17.20;99.90;;;;;;20962388;28;20109;-81
2022/08/31 22:57:50;;;;;;;1.85;0.20;;;17.10;99.90;;;;;;20968853;28;20036;-80
2022/08/31 23:07:52;;;;;;;0.45;0.25;;;17.00;99.90;;;;;;20958540;28;20043;-81
2022/08/31 23:17:52;;;;;;;0.50;0.40;;;16.90;99.90;;;;;;20966755;28;20037;-81
2022/08/31 23:27:53;;;;;;;0.28;0.10;;;16.70;99.90;;;;;;20954796;28;20036;-81
2022/08/31 23:37:55;;;;;;;0.80;0.30;;;16.40;99.90;;;;;;20952900;28;20050;-81
2022/08/31 23:47:56;;;;;;;2.15;0.70;;;16.30;99.90;;;;;;20960835;28;20028;-80
2022/08/31 23:57:58;;;;;;;0.43;0.20;;;16.20;99.90;;;;;;20960292;28;20488;-80
